Time;durP1;ratioP1;P1;durP2;ratioP2;P2;SDS_P1;SDS_P2;PMS_P1;PMS_P2;Temp;Humidity;BMP_temperature;BMP_pressure;BME280_temperature;BME280_humidity;BME280_pressure;Samples;Min_cycle;Max_cycle;Signal;HPM_P1;HPM_P2
2021/06/27 00:01:19;;;;;;;10.20;8.50;;;17.30;99.90;;;;;;5042142;28;20025;-78
2021/06/27 00:03:45;;;;;;;10.15;9.13;;;17.30;99.90;;;;;;5039950;28;20021;-78
2021/06/27 00:06:10;;;;;;;9.95;8.88;;;17.30;99.90;;;;;;5044719;28;20040;-78
2021/06/27 00:08:39;;;;;;;11.20;9.13;;;17.30;99.90;;;;;;5034006;28;20467;-78
2021/06/27 00:11:05;;;;;;;9.80;8.80;;;17.30;99.90;;;;;;5028293;28;20059;-78
2021/06/27 00:13:34;;;;;;;10.00;8.52;;;17.30;99.90;;;;;;5043933;28;20561;-77
2021/06/27 00:15:59;;;;;;;10.68;9.55;;;17.30;99.90;;;;;;5033221;28;20042;-78
2021/06/27 00:18:28;;;;;;;11.50;9.20;;;17.20;99.90;;;;;;5046582;28;20025;-78
2021/06/27 00:20:57;;;;;;;10.85;9.30;;;17.20;99.90;;;;;;5046314;28;20520;-77
2021/06/27 00:23:28;;;;;;;11.60;9.60;;;17.20;99.90;;;;;;5043269;28;20037;-77
2021/06/27 00:25:54;;;;;;;10.82;9.43;;;17.20;99.90;;;;;;5062135;28;20071;-77
2021/06/27 00:28:23;;;;;;;12.63;9.68;;;17.20;99.90;;;;;;5062888;28;20596;-77
2021/06/27 00:30:51;;;;;;;9.98;8.75;;;17.20;99.90;;;;;;5039626;28;20454;-77
2021/06/27 00:33:17;;;;;;;11.15;9.38;;;17.10;99.90;;;;;;5045027;28;20028;-78
2021/06/27 00:35:45;;;;;;;11.80;9.68;;;17.10;99.90;;;;;;5039107;28;20040;-77
2021/06/27 00:38:13;;;;;;;11.00;9.20;;;17.10;99.90;;;;;;5039912;28;20053;-77
2021/06/27 00:40:44;;;;;;;12.00;9.90;;;17.10;99.90;;;;;;5041962;28;20138;-77
2021/06/27 00:43:12;;;;;;;12.45;9.05;;;17.10;99.90;;;;;;5041559;28;20092;-77
2021/06/27 00:45:37;;;;;;;11.57;9.38;;;17.00;99.90;;;;;;5042287;28;20351;-77
2021/06/27 00:48:04;;;;;;;11.15;9.50;;;17.00;99.90;;;;;;5042972;28;20029;-77
2021/06/27 00:50:33;;;;;;;11.50;9.68;;;17.00;99.90;;;;;;5043718;28;20064;-78
2021/06/27 00:53:01;;;;;;;12.60;9.23;;;17.00;99.90;;;;;;5043352;28;20029;-77
2021/06/27 00:55:27;;;;;;;11.40;9.32;;;17.00;99.90;;;;;;5042398;28;20081;-77
2021/06/27 00:57:53;;;;;;;10.93;9.05;;;16.90;99.90;;;;;;5043619;28;20398;-77
2021/06/27 01:00:23;;;;;;;12.10;9.32;;;16.90;99.90;;;;;;5043762;28;20486;-77
2021/06/27 01:02:49;;;;;;;11.25;9.55;;;16.90;99.90;;;;;;5047099;28;20041;-77
2021/06/27 01:05:17;;;;;;;12.82;10.00;;;16.90;99.90;;;;;;5024003;28;20039;-77
2021/06/27 01:07:43;;;;;;;11.23;9.55;;;16.90;99.90;;;;;;5043781;28;20445;-76
2021/06/27 01:10:09;;;;;;;10.40;9.30;;;16.90;99.90;;;;;;5040304;28;20927;-77
2021/06/27 01:12:35;;;;;;;13.43;9.82;;;16.90;99.90;;;;;;5043638;28;20509;-77
2021/06/27 01:15:01;;;;;;;12.48;10.27;;;16.80;99.90;;;;;;5043471;28;20072;-77
2021/06/27 01:17:29;;;;;;;10.32;9.23;;;16.80;99.90;;;;;;5040248;28;20503;-77
2021/06/27 01:19:54;;;;;;;10.00;8.80;;;16.80;99.90;;;;;;5039610;28;20078;-77
2021/06/27 01:22:20;;;;;;;11.48;9.18;;;16.80;99.90;;;;;;5030094;28;20112;-77
2021/06/27 01:24:46;;;;;;;11.30;9.07;;;16.80;99.90;;;;;;5043639;28;20059;-77
2021/06/27 01:27:11;;;;;;;11.32;9.30;;;16.80;99.90;;;;;;5041587;28;20029;-77
2021/06/27 01:29:37;;;;;;;11.45;10.05;;;16.70;99.90;;;;;;5040421;28;20037;-78
2021/06/27 01:32:03;;;;;;;10.88;9.25;;;16.80;99.90;;;;;;5036916;28;20020;-78
2021/06/27 01:34:28;;;;;;;14.20;9.65;;;16.70;99.90;;;;;;5041695;28;20033;-78
2021/06/27 01:36:59;;;;;;;11.32;8.88;;;16.70;99.90;;;;;;5041622;28;20029;-78
2021/06/27 01:39:27;;;;;;;11.07;9.57;;;16.70;99.90;;;;;;5042233;28;20091;-77
2021/06/27 01:41:55;;;;;;;11.75;9.27;;;16.70;99.90;;;;;;5040042;28;20612;-77
2021/06/27 01:44:20;;;;;;;10.88;9.35;;;16.70;99.90;;;;;;5043422;28;20121;-77
2021/06/27 01:46:48;;;;;;;11.23;9.00;;;16.70;99.90;;;;;;5040474;28;20108;-77
2021/06/27 01:49:14;;;;;;;10.63;9.05;;;16.70;99.90;;;;;;5036218;28;20068;-77
2021/06/27 01:51:42;;;;;;;10.73;9.35;;;16.70;99.90;;;;;;5042511;28;20638;-77
2021/06/27 01:54:07;;;;;;;11.82;9.38;;;16.60;99.90;;;;;;5037558;28;20032;-77
2021/06/27 01:56:38;;;;;;;12.13;9.60;;;16.60;99.90;;;;;;5043117;28;20573;-78
2021/06/27 01:59:05;;;;;;;10.02;9.02;;;16.60;99.90;;;;;;5039654;28;20025;-77
2021/06/27 02:01:38;;;;;;;11.30;9.57;;;16.60;99.90;;;;;;5041664;28;20025;-77
2021/06/27 02:04:08;;;;;;;11.20;9.43;;;16.60;99.90;;;;;;5041230;28;20498;-78
2021/06/27 02:06:42;;;;;;;11.88;9.55;;;16.60;99.90;;;;;;5042320;28;20040;-78
2021/06/27 02:09:10;;;;;;;13.48;9.75;;;16.60;99.90;;;;;;5041797;28;20040;-76
2021/06/27 02:11:36;;;;;;;10.30;9.20;;;16.50;99.90;;;;;;5041766;28;20095;-77
2021/06/27 02:14:05;;;;;;;11.50;10.05;;;16.50;99.90;;;;;;5039042;28;20033;-77
2021/06/27 02:16:30;;;;;;;11.02;9.20;;;16.60;99.90;;;;;;5041095;28;20083;-77
2021/06/27 02:19:01;;;;;;;11.05;9.52;;;16.50;99.90;;;;;;5041607;28;21029;-76
2021/06/27 02:21:32;;;;;;;12.57;9.77;;;16.50;99.90;;;;;;5040071;28;20071;-77
2021/06/27 02:23:57;;;;;;;11.05;9.13;;;16.50;99.90;;;;;;5038517;28;20473;-77
2021/06/27 02:26:26;;;;;;;12.27;9.35;;;16.50;99.90;;;;;;5037342;28;20037;-77
2021/06/27 02:28:52;;;;;;;12.52;9.25;;;16.60;99.90;;;;;;5018737;28;20069;-77
2021/06/27 02:31:20;;;;;;;10.52;9.20;;;16.60;99.90;;;;;;5040932;28;20127;-77
2021/06/27 02:33:49;;;;;;;10.70;9.30;;;16.60;99.90;;;;;;5037041;28;20029;-77
2021/06/27 02:36:15;;;;;;;10.48;8.73;;;16.60;99.90;;;;;;5036714;28;20033;-77
2021/06/27 02:38:45;;;;;;;9.60;8.50;;;16.60;99.90;;;;;;5021514;28;20017;-76
2021/06/27 02:41:13;;;;;;;10.00;8.57;;;16.60;99.90;;;;;;5039999;28;20451;-77
2021/06/27 02:43:41;;;;;;;10.68;9.10;;;16.60;99.90;;;;;;5041944;28;20067;-76
2021/06/27 02:46:09;;;;;;;11.75;9.00;;;16.60;99.90;;;;;;5034348;28;20037;-77
2021/06/27 02:48:35;;;;;;;10.35;8.90;;;16.70;99.90;;;;;;5046329;28;20467;-78
2021/06/27 02:51:01;;;;;;;10.45;9.30;;;16.70;99.90;;;;;;5020951;28;20063;-77
2021/06/27 02:53:29;;;;;;;11.13;9.30;;;16.70;99.90;;;;;;5037350;28;20033;-77
2021/06/27 02:56:09;;;;;;;10.75;8.88;;;16.70;99.90;;;;;;5041022;28;20466;-78
2021/06/27 02:58:48;;;;;;;10.75;9.05;;;16.70;99.90;;;;;;5038956;28;20596;-77
2021/06/27 03:01:17;;;;;;;11.20;8.85;;;16.70;99.90;;;;;;5043674;28;20053;-78
2021/06/27 03:03:46;;;;;;;11.00;9.43;;;16.80;99.90;;;;;;5021610;28;20021;-76
2021/06/27 03:06:14;;;;;;;11.32;9.10;;;16.80;99.90;;;;;;5038830;28;20040;-77
2021/06/27 03:08:40;;;;;;;10.93;8.73;;;16.80;99.90;;;;;;5022186;28;20030;-77
2021/06/27 03:11:09;;;;;;;11.25;9.05;;;16.80;99.90;;;;;;5040003;28;20046;-77
2021/06/27 03:13:35;;;;;;;10.02;8.95;;;16.80;99.90;;;;;;5037371;28;20020;-76
2021/06/27 03:16:03;;;;;;;11.65;9.20;;;16.80;99.90;;;;;;5040075;28;20470;-76
2021/06/27 03:18:29;;;;;;;10.68;8.60;;;16.90;99.90;;;;;;5045111;28;20029;-76
2021/06/27 03:20:55;;;;;;;10.80;8.85;;;16.80;99.90;;;;;;5039976;28;20610;-78
2021/06/27 03:23:20;;;;;;;10.55;8.98;;;16.80;99.90;;;;;;5037675;28;20021;-77
2021/06/27 03:25:46;;;;;;;10.20;9.05;;;16.90;99.90;;;;;;5039559;28;20626;-77
2021/06/27 03:28:11;;;;;;;10.15;8.35;;;16.80;99.90;;;;;;5039381;28;20040;-78
2021/06/27 03:30:39;;;;;;;11.43;9.07;;;16.80;99.90;;;;;;5038033;28;20029;-77
2021/06/27 03:33:06;;;;;;;11.45;9.23;;;16.80;99.90;;;;;;5038987;28;20029;-78
2021/06/27 03:35:31;;;;;;;11.60;9.23;;;16.80;99.90;;;;;;5036458;28;20104;-77
2021/06/27 03:38:11;;;;;;;10.85;9.13;;;16.80;99.90;;;;;;5038339;28;20127;-77
2021/06/27 03:40:38;;;;;;;11.10;8.98;;;16.80;99.90;;;;;;5045972;28;20560;-77
2021/06/27 03:43:04;;;;;;;12.00;9.52;;;16.80;99.90;;;;;;5045954;28;20025;-77
2021/06/27 03:45:31;;;;;;;10.07;8.98;;;16.80;99.90;;;;;;5044212;28;20394;-77
2021/06/27 03:47:57;;;;;;;10.13;9.02;;;16.80;99.90;;;;;;5046514;28;20036;-77
2021/06/27 03:50:23;;;;;;;10.32;9.20;;;16.80;99.90;;;;;;5047644;28;20094;-77
2021/06/27 03:52:49;;;;;;;13.23;9.63;;;16.80;99.90;;;;;;5044566;28;20032;-77
2021/06/27 03:55:14;;;;;;;9.80;8.48;;;16.80;99.90;;;;;;5045861;28;20033;-77
2021/06/27 03:57:40;;;;;;;11.63;9.75;;;16.80;99.90;;;;;;5042634;28;20151;-76
2021/06/27 04:00:07;;;;;;;11.23;9.32;;;16.80;99.90;;;;;;5049308;28;20495;-77
2021/06/27 04:02:32;;;;;;;11.43;9.55;;;16.80;99.90;;;;;;5045410;28;20052;-76
2021/06/27 04:05:00;;;;;;;12.25;9.95;;;16.80;99.90;;;;;;5045560;28;20315;-77
2021/06/27 04:07:28;;;;;;;10.77;9.20;;;16.80;99.90;;;;;;5048748;28;20017;-77
2021/06/27 04:09:56;;;;;;;11.00;9.60;;;16.80;99.90;;;;;;5045655;28;20039;-77
2021/06/27 04:12:22;;;;;;;11.63;9.02;;;16.80;99.90;;;;;;5042825;28;20040;-77
2021/06/27 04:14:48;;;;;;;10.95;9.73;;;16.90;99.90;;;;;;5046877;28;20393;-77
2021/06/27 04:17:17;;;;;;;10.50;9.40;;;16.90;99.90;;;;;;5044059;28;20020;-77
2021/06/27 04:19:47;;;;;;;11.27;9.07;;;16.90;99.90;;;;;;5045047;28;20022;-77
2021/06/27 04:22:16;;;;;;;10.38;9.27;;;16.80;99.90;;;;;;5042337;28;20025;-78
2021/06/27 04:24:41;;;;;;;13.70;10.48;;;16.90;99.90;;;;;;5045777;28;20594;-77
2021/06/27 04:27:09;;;;;;;11.35;9.30;;;16.90;99.90;;;;;;5046258;28;20117;-77
2021/06/27 04:29:39;;;;;;;10.65;9.27;;;16.90;99.90;;;;;;5034861;28;20171;-77
2021/06/27 04:32:08;;;;;;;10.27;9.07;;;17.00;99.90;;;;;;5044684;28;20051;-76
2021/06/27 04:34:36;;;;;;;12.70;9.88;;;16.90;99.90;;;;;;5043860;28;20052;-77
2021/06/27 04:37:02;;;;;;;11.52;9.43;;;17.00;99.90;;;;;;5044773;28;20033;-77
2021/06/27 04:39:30;;;;;;;10.77;9.65;;;17.00;99.90;;;;;;5042821;28;20039;-78
2021/06/27 04:41:58;;;;;;;10.65;9.27;;;17.00;99.90;;;;;;5047780;28;20557;-78
2021/06/27 04:44:24;;;;;;;10.40;9.30;;;17.00;99.90;;;;;;5045950;28;20026;-78
2021/06/27 04:46:49;;;;;;;10.38;8.70;;;17.10;99.90;;;;;;5042995;28;20480;-78
2021/06/27 04:49:15;;;;;;;12.02;9.48;;;17.10;99.90;;;;;;5040596;28;20069;-78
2021/06/27 04:51:41;;;;;;;11.18;9.40;;;17.10;99.90;;;;;;5030659;28;20056;-78
2021/06/27 04:54:09;;;;;;;10.50;9.40;;;17.20;99.90;;;;;;5042949;28;20053;-78
2021/06/27 04:56:37;;;;;;;11.20;8.70;;;17.20;99.90;;;;;;5043488;28;20036;-78
2021/06/27 04:59:03;;;;;;;9.82;8.82;;;17.30;99.90;;;;;;5043915;28;20059;-77
2021/06/27 05:01:28;;;;;;;10.27;9.18;;;17.30;99.90;;;;;;5041166;28;20045;-77
2021/06/27 05:03:54;;;;;;;10.60;9.25;;;17.40;99.90;;;;;;5045850;28;20627;-77
2021/06/27 05:06:22;;;;;;;10.48;9.38;;;17.50;99.90;;;;;;5041354;28;20060;-77
2021/06/27 05:08:49;;;;;;;10.27;8.75;;;17.50;99.90;;;;;;5043371;28;20462;-78
2021/06/27 05:11:20;;;;;;;10.07;9.00;;;17.60;99.90;;;;;;5041533;28;20060;-77
2021/06/27 05:13:46;;;;;;;10.65;9.15;;;17.70;99.90;;;;;;5041137;28;20029;-78
2021/06/27 05:16:14;;;;;;;10.07;8.98;;;17.70;99.90;;;;;;5039742;28;20037;-78
2021/06/27 05:18:40;;;;;;;10.32;8.77;;;17.80;99.90;;;;;;5039072;28;20041;-78
2021/06/27 05:21:08;;;;;;;11.65;10.00;;;17.90;99.90;;;;;;5043500;28;20287;-78
2021/06/27 05:23:33;;;;;;;11.02;9.80;;;17.90;99.90;;;;;;5041573;28;20040;-75
2021/06/27 05:25:59;;;;;;;10.40;9.30;;;18.00;99.90;;;;;;5045782;28;20037;-78
2021/06/27 05:28:25;;;;;;;10.48;9.38;;;18.20;99.90;;;;;;5043400;28;20059;-78
2021/06/27 05:30:53;;;;;;;10.75;9.40;;;18.30;99.90;;;;;;5043126;28;20031;-79
2021/06/27 05:33:19;;;;;;;10.25;9.13;;;18.30;99.90;;;;;;5042107;28;20037;-78
2021/06/27 05:35:44;;;;;;;9.80;8.75;;;18.50;99.90;;;;;;5042756;28;20043;-78
2021/06/27 05:38:12;;;;;;;9.88;8.82;;;18.60;99.90;;;;;;5046732;28;20029;-78
2021/06/27 05:40:42;;;;;;;10.55;9.45;;;18.70;99.90;;;;;;5041324;28;20454;-78
2021/06/27 05:43:09;;;;;;;10.43;9.32;;;18.80;99.90;;;;;;5043240;28;20029;-78
2021/06/27 05:45:39;;;;;;;10.75;9.65;;;18.80;99.90;;;;;;5047853;28;20036;-78
2021/06/27 05:48:07;;;;;;;10.55;9.45;;;18.90;99.90;;;;;;5045789;28;20028;-78
2021/06/27 05:50:35;;;;;;;11.13;10.00;;;18.90;99.90;;;;;;5042833;28;20025;-78
2021/06/27 05:53:03;;;;;;;9.95;8.90;;;19.00;99.90;;;;;;5041986;28;20033;-77
2021/06/27 05:55:29;;;;;;;10.55;9.35;;;19.00;99.90;;;;;;5041798;28;20056;-78
2021/06/27 05:57:57;;;;;;;12.02;9.57;;;19.00;99.90;;;;;;5044127;28;20017;-79
2021/06/27 06:00:22;;;;;;;10.52;9.43;;;19.10;99.90;;;;;;5044512;28;20040;-79
2021/06/27 06:02:48;;;;;;;10.52;9.43;;;19.10;99.90;;;;;;5041644;28;20025;-79
2021/06/27 06:05:14;;;;;;;11.63;9.68;;;19.10;99.90;;;;;;5043547;28;20044;-78
2021/06/27 06:07:39;;;;;;;10.88;9.55;;;19.10;99.90;;;;;;5040709;28;20070;-79
2021/06/27 06:10:08;;;;;;;10.20;9.20;;;19.20;99.90;;;;;;5045178;28;20052;-78
2021/06/27 06:12:34;;;;;;;10.68;9.40;;;19.10;99.90;;;;;;5043155;28;20166;-78
2021/06/27 06:15:02;;;;;;;10.20;9.13;;;19.20;99.90;;;;;;5042420;28;20447;-79
2021/06/27 06:17:30;;;;;;;10.93;9.82;;;19.20;99.90;;;;;;5043511;28;20091;-78
2021/06/27 06:19:55;;;;;;;10.52;9.25;;;19.30;99.90;;;;;;5042666;28;20030;-79
2021/06/27 06:22:23;;;;;;;10.63;9.27;;;19.30;99.90;;;;;;5042868;28;20362;-79
2021/06/27 06:24:51;;;;;;;9.70;8.70;;;19.30;99.90;;;;;;5042583;28;20049;-78
2021/06/27 06:27:17;;;;;;;10.20;9.20;;;19.30;99.90;;;;;;5043153;28;20063;-78
2021/06/27 06:29:42;;;;;;;9.80;8.90;;;19.30;99.90;;;;;;5038589;28;20022;-79
2021/06/27 06:32:08;;;;;;;10.30;9.25;;;19.40;99.90;;;;;;5041570;28;20091;-78
2021/06/27 06:34:34;;;;;;;10.45;9.35;;;19.50;99.90;;;;;;5040401;28;20025;-79
2021/06/27 06:36:59;;;;;;;9.85;8.85;;;19.60;99.90;;;;;;5044057;28;20060;-78
2021/06/27 06:39:30;;;;;;;10.90;9.80;;;19.50;99.90;;;;;;5038755;28;20026;-78
2021/06/27 06:41:55;;;;;;;9.68;8.38;;;19.50;99.90;;;;;;5043034;28;20030;-77
2021/06/27 06:44:23;;;;;;;9.57;8.50;;;19.60;99.90;;;;;;5041250;28;20515;-78
2021/06/27 06:46:51;;;;;;;10.60;8.90;;;19.70;99.90;;;;;;5041634;28;20029;-78
2021/06/27 06:49:17;;;;;;;10.00;8.90;;;19.60;99.90;;;;;;5046546;28;20029;-78
2021/06/27 06:51:42;;;;;;;10.70;9.57;;;19.70;99.90;;;;;;5040181;28;20533;-77
2021/06/27 06:54:08;;;;;;;10.50;9.10;;;19.80;99.90;;;;;;5042672;28;21854;-77
2021/06/27 06:56:36;;;;;;;10.05;9.05;;;19.80;99.90;;;;;;5041895;28;20443;-77
2021/06/27 06:59:02;;;;;;;10.20;9.10;;;19.90;99.90;;;;;;5043085;28;20054;-79
2021/06/27 07:01:27;;;;;;;9.95;8.95;;;19.90;99.90;;;;;;5038442;28;20056;-78
2021/06/27 07:03:53;;;;;;;10.90;9.32;;;19.90;99.90;;;;;;5041031;28;20028;-78
2021/06/27 07:06:22;;;;;;;10.55;9.45;;;20.00;99.90;;;;;;5042015;28;20048;-79
2021/06/27 07:08:50;;;;;;;10.07;9.07;;;20.10;99.90;;;;;;5042586;28;20043;-79
2021/06/27 07:11:16;;;;;;;9.60;8.55;;;20.10;99.90;;;;;;5040764;28;20059;-79
2021/06/27 07:13:44;;;;;;;9.98;8.95;;;20.10;99.90;;;;;;5042881;28;20025;-78
2021/06/27 07:16:12;;;;;;;10.00;9.00;;;20.10;99.90;;;;;;5042278;28;20128;-78
2021/06/27 07:18:37;;;;;;;9.98;8.75;;;20.10;99.90;;;;;;5042693;28;20025;-77
2021/06/27 07:21:10;;;;;;;10.00;9.00;;;20.20;99.90;;;;;;5042051;28;20094;-78
2021/06/27 07:23:37;;;;;;;10.40;9.30;;;20.20;99.90;;;;;;5041436;28;20029;-78
2021/06/27 07:26:05;;;;;;;11.18;9.30;;;20.30;99.90;;;;;;5041287;28;20063;-78
2021/06/27 07:28:31;;;;;;;9.20;8.25;;;20.40;99.90;;;;;;5041930;28;20382;-78
2021/06/27 07:31:01;;;;;;;9.68;8.68;;;20.60;99.90;;;;;;5039640;28;20029;-78
2021/06/27 07:33:29;;;;;;;10.45;8.70;;;20.60;99.90;;;;;;5039248;28;20037;-79
2021/06/27 07:35:55;;;;;;;10.15;9.15;;;20.70;99.90;;;;;;5039538;28;20041;-79
2021/06/27 07:38:23;;;;;;;11.65;9.27;;;20.80;99.90;;;;;;5043382;28;20275;-80
2021/06/27 07:40:53;;;;;;;9.82;8.65;;;20.80;99.90;;;;;;5039207;28;20029;-78
2021/06/27 07:43:19;;;;;;;9.60;8.57;;;20.90;99.90;;;;;;5040221;28;20055;-78
2021/06/27 07:45:46;;;;;;;11.00;8.98;;;21.00;99.90;;;;;;5038317;28;20052;-78
2021/06/27 07:48:12;;;;;;;9.88;8.98;;;21.10;99.90;;;;;;5044206;28;20497;-78
2021/06/27 07:50:41;;;;;;;10.15;8.85;;;21.10;99.90;;;;;;5039985;28;20040;-71
2021/06/27 07:53:06;;;;;;;10.55;8.77;;;21.20;99.90;;;;;;5036732;28;20052;-70
2021/06/27 07:55:35;;;;;;;10.18;8.85;;;21.40;99.90;;;;;;5036383;28;20059;-71
2021/06/27 07:58:01;;;;;;;9.65;8.43;;;21.60;99.90;;;;;;5041537;28;20021;-71
2021/06/27 08:00:29;;;;;;;9.32;8.43;;;21.60;99.90;;;;;;5042142;28;20104;-71
2021/06/27 08:02:56;;;;;;;9.43;8.45;;;21.60;99.90;;;;;;5038799;28;20056;-71
2021/06/27 08:05:21;;;;;;;10.32;9.18;;;21.70;99.90;;;;;;5042026;28;20025;-71
2021/06/27 08:07:49;;;;;;;9.80;8.80;;;21.70;99.90;;;;;;5045791;28;20502;-71
2021/06/27 08:10:17;;;;;;;10.02;8.52;;;21.90;99.90;;;;;;5041191;28;20029;-70
2021/06/27 08:12:43;;;;;;;9.48;8.52;;;21.80;99.90;;;;;;5037427;28;20022;-71
2021/06/27 08:15:18;;;;;;;9.85;8.82;;;21.90;99.90;;;;;;5039619;28;20044;-71
2021/06/27 08:17:51;;;;;;;11.77;8.50;;;22.00;99.90;;;;;;5044376;28;20103;-71
2021/06/27 08:20:18;;;;;;;9.80;8.20;;;22.10;99.90;;;;;;5041947;28;20083;-71
2021/06/27 08:22:43;;;;;;;9.55;8.55;;;22.20;99.90;;;;;;5037021;28;20543;-67
2021/06/27 08:25:09;;;;;;;11.30;10.20;;;22.40;99.90;;;;;;5021170;28;20135;-68
2021/06/27 08:27:35;;;;;;;9.55;8.65;;;22.60;99.90;;;;;;5042274;28;20451;-67
2021/06/27 08:30:04;;;;;;;9.45;8.40;;;22.70;99.90;;;;;;5042414;28;20052;-71
2021/06/27 08:32:32;;;;;;;10.05;8.30;;;22.60;99.90;;;;;;5043963;28;20351;-71
2021/06/27 08:34:58;;;;;;;8.98;8.05;;;22.70;99.90;;;;;;5047814;28;20025;-71
2021/06/27 08:37:28;;;;;;;11.15;8.20;;;22.80;99.90;;;;;;5045602;28;20025;-71
2021/06/27 08:39:54;;;;;;;9.00;8.10;;;23.00;99.90;;;;;;5043055;28;20114;-71
2021/06/27 08:42:20;;;;;;;8.73;7.82;;;23.10;99.90;;;;;;5040310;28;20593;-67
2021/06/27 08:44:46;;;;;;;9.55;8.38;;;23.30;99.90;;;;;;5025883;28;20032;-67
2021/06/27 08:47:15;;;;;;;10.88;9.63;;;23.40;99.90;;;;;;5040896;28;20359;-72
2021/06/27 08:49:46;;;;;;;9.35;8.30;;;23.40;99.90;;;;;;5044469;28;20036;-71
2021/06/27 08:52:16;;;;;;;9.85;8.27;;;23.60;99.90;;;;;;5025076;28;20498;-71
2021/06/27 08:54:42;;;;;;;8.82;7.93;;;23.70;99.90;;;;;;5043001;28;20032;-72
2021/06/27 08:57:09;;;;;;;9.75;7.97;;;23.80;99.20;;;;;;5042701;28;21990;-71
2021/06/27 08:59:36;;;;;;;9.00;8.10;;;23.80;99.90;;;;;;5025372;28;20037;-71
2021/06/27 09:02:05;;;;;;;8.95;8.05;;;24.00;99.90;;;;;;5043180;28;20033;-72
2021/06/27 09:04:33;;;;;;;8.90;8.00;;;24.10;99.90;;;;;;5025148;28;20494;-71
2021/06/27 09:07:25;;;;;;;8.80;7.90;;;24.20;99.90;;;;;;5042006;28;20060;-72
2021/06/27 09:09:51;;;;;;;9.18;7.85;;;24.30;94.20;;;;;;5043602;28;20084;-72
2021/06/27 09:12:17;;;;;;;9.93;7.72;;;24.30;99.90;;;;;;5043334;28;20106;-71
2021/06/27 09:14:45;;;;;;;8.60;7.40;;;24.30;96.40;;;;;;5046915;28;20374;-72
2021/06/27 09:17:18;;;;;;;9.25;7.57;;;24.30;99.80;;;;;;5015131;28;20500;-72
2021/06/27 09:19:53;;;;;;;8.95;7.82;;;24.40;99.90;;;;;;5043036;28;20049;-72
2021/06/27 09:22:29;;;;;;;8.40;7.45;;;24.60;99.90;;;;;;5043102;28;20751;-71
2021/06/27 09:25:14;;;;;;;9.98;8.00;;;24.60;98.90;;;;;;5041342;28;20064;-71
2021/06/27 09:27:40;;;;;;;9.13;7.35;;;24.70;94.90;;;;;;5038817;28;20022;-72
2021/06/27 09:30:13;;;;;;;8.32;7.50;;;24.70;98.00;;;;;;5039617;28;20496;-72
2021/06/27 09:32:48;;;;;;;8.57;7.68;;;24.70;96.70;;;;;;5044363;28;20032;-72
2021/06/27 09:35:33;;;;;;;8.20;7.40;;;24.80;99.90;;;;;;5023814;28;20033;-72
2021/06/27 09:37:58;;;;;;;9.10;8.20;;;24.80;99.90;;;;;;5028004;28;20036;-68
2021/06/27 09:40:34;;;;;;;11.07;9.82;;;24.90;99.90;;;;;;5038586;28;20025;-68
2021/06/27 09:43:09;;;;;;;8.60;7.38;;;25.00;97.20;;;;;;5040559;28;20052;-68
2021/06/27 09:45:45;;;;;;;8.07;7.20;;;25.10;98.30;;;;;;5062340;28;20462;-72
2021/06/27 09:48:13;;;;;;;8.48;7.65;;;25.10;90.90;;;;;;5045947;28;20108;-72
2021/06/27 09:50:39;;;;;;;8.55;7.70;;;25.20;99.30;;;;;;5037100;28;21622;-71
2021/06/27 09:53:04;;;;;;;9.02;7.28;;;25.20;98.90;;;;;;5041251;28;20033;-72
2021/06/27 09:55:32;;;;;;;8.20;7.40;;;25.20;95.90;;;;;;5043218;28;20164;-68
2021/06/27 09:58:14;;;;;;;7.88;7.07;;;25.20;95.50;;;;;;5043566;28;20033;-68
2021/06/27 10:00:42;;;;;;;9.70;7.40;;;25.30;93.00;;;;;;4696362;28;9999973;-68
2021/06/27 10:03:10;;;;;;;7.95;7.03;;;25.30;97.60;;;;;;5040789;28;20059;-68
2021/06/27 10:05:36;;;;;;;8.30;7.35;;;25.30;97.10;;;;;;5039834;28;20025;-68
2021/06/27 10:08:01;;;;;;;8.07;7.20;;;25.40;96.70;;;;;;5036685;28;20524;-73
2021/06/27 10:10:27;;;;;;;8.90;7.95;;;25.50;98.70;;;;;;5039048;28;20028;-71
2021/06/27 10:12:56;;;;;;;9.95;7.47;;;25.60;98.10;;;;;;5036421;28;20028;-71
2021/06/27 10:15:24;;;;;;;8.02;7.22;;;25.60;96.20;;;;;;5037608;28;20032;-71
2021/06/27 10:17:49;;;;;;;8.88;7.60;;;25.70;97.80;;;;;;5036391;28;20037;-71
2021/06/27 10:20:16;;;;;;;8.45;7.25;;;25.80;99.20;;;;;;5038261;28;20563;-71
2021/06/27 10:22:44;;;;;;;8.32;7.05;;;25.70;94.00;;;;;;5040356;28;20124;-72
2021/06/27 10:25:14;;;;;;;7.82;7.00;;;25.90;96.20;;;;;;4692847;28;10000653;-72
2021/06/27 10:27:39;;;;;;;9.90;8.45;;;25.90;95.00;;;;;;5026948;28;20037;-68
2021/06/27 10:30:07;;;;;;;8.90;6.93;;;26.00;97.10;;;;;;5040430;28;20109;-69
2021/06/27 10:32:39;;;;;;;7.80;6.60;;;26.00;93.70;;;;;;5038331;28;20036;-68
2021/06/27 10:35:13;;;;;;;9.13;6.72;;;26.10;96.10;;;;;;5036711;28;20033;-72
2021/06/27 10:37:40;;;;;;;7.70;6.45;;;26.20;96.00;;;;;;5036317;28;20465;-71
2021/06/27 10:40:11;;;;;;;8.05;6.50;;;26.20;91.00;;;;;;5036889;28;20074;-76
2021/06/27 10:42:49;;;;;;;7.35;6.60;;;26.10;90.20;;;;;;5019943;28;20436;-73
2021/06/27 10:45:25;;;;;;;7.03;6.30;;;26.10;92.20;;;;;;5036964;28;20121;-73
2021/06/27 10:47:56;;;;;;;7.10;6.40;;;26.20;90.90;;;;;;5038739;28;20091;-72
2021/06/27 10:50:44;;;;;;;7.45;6.55;;;26.30;92.80;;;;;;5037225;28;20021;-73
2021/06/27 10:53:15;;;;;;;9.45;6.82;;;26.40;92.10;;;;;;5040417;28;20044;-72
2021/06/27 10:55:44;;;;;;;8.80;6.50;;;26.50;93.20;;;;;;5042341;28;20398;-73
2021/06/27 10:58:17;;;;;;;7.25;6.50;;;26.40;84.20;;;;;;5039109;28;20124;-73
2021/06/27 11:00:55;;;;;;;8.05;6.57;;;26.50;92.10;;;;;;5043359;28;20021;-73
2021/06/27 11:03:27;;;;;;;7.80;6.55;;;26.50;93.30;;;;;;5042845;28;20394;-73
2021/06/27 11:05:58;;;;;;;7.18;6.40;;;26.50;88.10;;;;;;5042320;28;20987;-73
2021/06/27 11:08:34;;;;;;;7.97;6.85;;;26.60;93.30;;;;;;5028819;28;20369;-72
2021/06/27 11:11:24;;;;;;;7.53;6.50;;;26.70;93.90;;;;;;5040531;28;20395;-73
2021/06/27 11:14:11;;;;;;;7.03;6.30;;;26.80;90.30;;;;;;5039962;28;20041;-73
2021/06/27 11:16:59;;;;;;;7.25;6.18;;;26.80;89.70;;;;;;5044421;28;20041;-74
2021/06/27 11:19:29;;;;;;;7.00;6.30;;;26.80;84.80;;;;;;5040645;28;20053;-73
2021/06/27 11:22:22;;;;;;;7.38;6.22;;;26.70;88.70;;;;;;5039554;28;20021;-73
2021/06/27 11:24:51;;;;;;;7.05;6.35;;;26.70;89.20;;;;;;5039611;28;20387;-73
2021/06/27 11:27:31;;;;;;;7.20;5.93;;;26.60;85.80;;;;;;5036751;28;20040;-73
2021/06/27 11:29:57;;;;;;;6.70;5.93;;;26.60;88.00;;;;;;5041106;28;20087;-73
2021/06/27 11:32:23;;;;;;;7.53;6.00;;;26.50;87.00;;;;;;5036342;28;20033;-68
2021/06/27 11:34:52;;;;;;;7.45;6.75;;;26.50;90.30;;;;;;5040593;28;20047;-67
2021/06/27 11:37:18;;;;;;;9.27;8.13;;;26.50;86.00;;;;;;5038713;28;20037;-73
2021/06/27 11:39:47;;;;;;;7.53;6.40;;;26.50;87.60;;;;;;5041652;28;20040;-73
2021/06/27 11:42:28;;;;;;;6.75;5.72;;;26.60;90.90;;;;;;5041142;28;20091;-73
2021/06/27 11:45:09;;;;;;;7.18;6.15;;;26.70;86.20;;;;;;5039639;28;20034;-72
2021/06/27 11:47:41;;;;;;;6.72;6.05;;;26.90;84.10;;;;;;5040447;28;20470;-73
2021/06/27 11:50:33;;;;;;;5.68;5.05;;;26.90;86.90;;;;;;5028078;28;20043;-72
2021/06/27 11:53:03;;;;;;;6.40;5.25;;;27.10;83.10;;;;;;5039404;28;20044;-72
2021/06/27 11:55:30;;;;;;;6.30;5.63;;;27.20;80.10;;;;;;5036653;28;20017;-73
2021/06/27 11:57:58;;;;;;;6.22;5.60;;;27.20;79.50;;;;;;5022328;28;20028;-75
2021/06/27 12:00:41;;;;;;;6.63;5.53;;;27.40;81.80;;;;;;5036926;28;20048;-73
2021/06/27 12:03:09;;;;;;;6.10;5.50;;;27.40;80.40;;;;;;5043717;28;20041;-73
2021/06/27 12:05:35;;;;;;;6.20;5.50;;;27.40;80.00;;;;;;5041093;28;20067;-73
2021/06/27 12:08:05;;;;;;;6.32;5.57;;;27.40;81.30;;;;;;5044493;28;20025;-73
2021/06/27 12:10:33;;;;;;;6.80;5.47;;;27.30;74.90;;;;;;5043827;28;20017;-73
2021/06/27 12:13:02;;;;;;;6.20;5.50;;;27.30;78.10;;;;;;5042699;28;20059;-72
2021/06/27 12:15:41;;;;;;;6.25;5.07;;;27.20;76.80;;;;;;5042345;28;20665;-72
2021/06/27 12:18:19;;;;;;;6.07;5.05;;;27.10;70.90;;;;;;5042129;28;20058;-73
2021/06/27 12:20:47;;;;;;;6.40;5.30;;;27.10;72.10;;;;;;5045594;28;20120;-73
2021/06/27 12:23:26;;;;;;;7.13;5.63;;;27.10;79.70;;;;;;5043655;28;20032;-73
2021/06/27 12:25:53;;;;;;;5.93;5.10;;;27.20;86.60;;;;;;5044373;28;20099;-73
2021/06/27 12:28:27;;;;;;;10.20;5.30;;;27.20;82.40;;;;;;5046739;28;20450;-73
2021/06/27 12:30:56;;;;;;;6.43;5.18;;;27.10;81.90;;;;;;5040738;28;20068;-73
2021/06/27 12:33:34;;;;;;;5.72;5.13;;;27.10;77.90;;;;;;5039924;28;20508;-74
2021/06/27 12:36:13;;;;;;;6.30;5.55;;;27.10;80.80;;;;;;5042961;28;20501;-74
2021/06/27 12:38:40;;;;;;;6.18;5.30;;;27.30;84.00;;;;;;5040060;28;20052;-68
2021/06/27 12:41:10;;;;;;;6.13;4.70;;;27.20;79.80;;;;;;5041484;28;20025;-68
2021/06/27 12:43:37;;;;;;;5.95;4.70;;;27.20;71.50;;;;;;5042556;28;20033;-70
2021/06/27 12:46:31;;;;;;;5.53;4.88;;;27.20;75.70;;;;;;5042689;28;20460;-73
2021/06/27 12:49:00;;;;;;;6.68;5.30;;;27.30;74.70;;;;;;5034150;28;20417;-73